createdAt,value
2022-10-28T00:01:51.719Z,2.38
2022-10-28T00:04:20.164Z,2.43
2022-10-28T00:06:48.741Z,2.47
2022-10-28T00:09:17.459Z,2.42
2022-10-28T00:11:45.854Z,2.27
2022-10-28T00:14:15.758Z,2.47
2022-10-28T00:16:44.185Z,2.49
2022-10-28T00:19:13.922Z,2.43
2022-10-28T00:21:44.374Z,2.58
2022-10-28T00:24:14.445Z,2.53
2022-10-28T00:26:44.012Z,2.66
2022-10-28T00:29:14.922Z,2.63
2022-10-28T00:31:45.425Z,2.65
2022-10-28T00:34:15.308Z,2.68
2022-10-28T00:36:44.932Z,2.47
2022-10-28T00:39:15.091Z,2.77
2022-10-28T00:41:45.442Z,2.86
2022-10-28T00:44:53.337Z,2.95
2022-10-28T00:47:30.780Z,2.91
2022-10-28T00:50:05.448Z,2.79
2022-10-28T00:52:34.141Z,2.94
2022-10-28T00:55:10.350Z,2.84
2022-10-28T00:57:39.455Z,3.08
2022-10-28T01:00:09.469Z,3.14
2022-10-28T01:02:48.451Z,2.95
2022-10-28T01:05:19.208Z,3.04
2022-10-28T01:07:47.741Z,3.13
2022-10-28T01:10:16.619Z,3.06
2022-10-28T01:12:57.461Z,3.17
2022-10-28T01:15:31.558Z,3.20
2022-10-28T01:18:08.103Z,3.22
2022-10-28T01:20:50.656Z,3.08
2022-10-28T01:23:24.751Z,3.23
2022-10-28T01:26:18.517Z,3.21
2022-10-28T01:29:24.668Z,3.12
2022-10-28T01:31:56.011Z,2.99
2022-10-28T01:34:30.356Z,2.91
2022-10-28T01:37:02.052Z,2.94
2022-10-28T01:39:34.798Z,3.07
2022-10-28T01:42:13.193Z,3.00
2022-10-28T01:44:48.065Z,2.91
2022-10-28T01:47:18.704Z,2.93
2022-10-28T01:49:49.781Z,2.96
2022-10-28T01:52:22.427Z,3.04
2022-10-28T01:54:52.967Z,3.05
2022-10-28T01:57:21.357Z,3.02
2022-10-28T01:59:50.028Z,3.06
2022-10-28T02:02:20.287Z,2.96
2022-10-28T02:04:48.663Z,3.08
2022-10-28T02:07:18.063Z,3.00
2022-10-28T02:09:56.842Z,3.09
2022-10-28T02:12:30.270Z,2.99
2022-10-28T02:15:32.488Z,3.15
2022-10-28T02:18:27.632Z,2.99
2022-10-28T02:20:57.795Z,3.14
2022-10-28T02:23:30.783Z,3.05
2022-10-28T02:26:02.552Z,3.30
2022-10-28T02:28:42.278Z,3.34
2022-10-28T02:31:18.421Z,3.40
2022-10-28T02:33:52.839Z,3.45
2022-10-28T02:36:23.462Z,3.30
2022-10-28T02:38:54.763Z,3.32
2022-10-28T02:41:26.851Z,3.42
2022-10-28T02:43:57.307Z,3.51
2022-10-28T02:46:26.299Z,3.45
2022-10-28T02:48:57.714Z,3.54
2022-10-28T02:51:30.360Z,3.50
2022-10-28T02:54:03.583Z,3.64
2022-10-28T02:56:34.862Z,3.56
2022-10-28T02:59:03.242Z,3.58
2022-10-28T03:01:31.796Z,3.66
2022-10-28T03:04:01.712Z,3.71
2022-10-28T03:06:30.169Z,3.44
2022-10-28T03:08:58.750Z,3.58
2022-10-28T03:11:27.218Z,3.70
2022-10-28T03:13:55.601Z,3.50
2022-10-28T03:16:24.025Z,3.64
2022-10-28T03:18:52.457Z,3.33
2022-10-28T03:21:22.315Z,3.48
2022-10-28T03:23:50.625Z,3.06
2022-10-28T03:26:18.924Z,3.23
2022-10-28T03:28:47.590Z,3.04
2022-10-28T03:31:17.232Z,3.13
2022-10-28T03:33:45.599Z,3.05
2022-10-28T03:36:13.895Z,2.93
2022-10-28T03:38:43.657Z,2.97
2022-10-28T03:41:11.954Z,2.73
2022-10-28T03:43:40.256Z,3.00
2022-10-28T03:46:08.612Z,3.03
2022-10-28T03:48:36.950Z,3.03
2022-10-28T03:51:05.615Z,3.14
2022-10-28T03:53:33.984Z,3.09
2022-10-28T03:56:04.564Z,3.22
2022-10-28T03:58:35.096Z,3.32
2022-10-28T04:01:05.957Z,3.38
2022-10-28T04:03:34.452Z,3.42
2022-10-28T04:06:02.777Z,3.43
2022-10-28T04:08:31.130Z,3.50
2022-10-28T04:10:59.473Z,3.53
2022-10-28T04:13:29.405Z,3.60
2022-10-28T04:15:57.789Z,3.53
2022-10-28T04:18:26.344Z,3.70
2022-10-28T04:20:54.856Z,3.54
2022-10-28T04:23:23.329Z,3.72
2022-10-28T04:25:55.386Z,3.72
2022-10-28T04:28:24.642Z,3.72
2022-10-28T04:30:54.462Z,3.53
2022-10-28T04:33:22.799Z,3.34
2022-10-28T04:35:51.350Z,3.37
2022-10-28T04:38:19.725Z,3.33
2022-10-28T04:40:49.225Z,3.21
2022-10-28T04:43:17.737Z,3.39
2022-10-28T04:45:47.624Z,3.42
2022-10-28T04:48:17.420Z,3.41
2022-10-28T04:50:45.966Z,3.53
2022-10-28T04:53:14.652Z,3.54
2022-10-28T04:55:43.013Z,3.53
2022-10-28T04:58:11.765Z,3.61
2022-10-28T05:00:40.121Z,3.60
2022-10-28T05:03:08.457Z,3.43
2022-10-28T05:05:38.491Z,3.70
2022-10-28T05:08:07.360Z,3.68
2022-10-28T05:10:37.203Z,3.72
2022-10-28T05:13:05.578Z,3.77
2022-10-28T05:15:34.042Z,3.82
2022-10-28T05:18:02.424Z,3.64
2022-10-28T05:20:30.807Z,3.69
2022-10-28T05:23:00.834Z,3.79
2022-10-28T05:25:29.464Z,3.86
2022-10-28T05:28:00.496Z,3.76
2022-10-28T05:30:29.381Z,3.85
2022-10-28T05:33:02.536Z,3.90
2022-10-28T05:35:31.115Z,3.89
2022-10-28T05:38:00.944Z,3.99
2022-10-28T05:40:29.371Z,4.01
2022-10-28T05:42:57.703Z,4.03
2022-10-28T05:45:26.164Z,3.90
2022-10-28T05:47:54.931Z,3.67
2022-10-28T05:50:23.599Z,4.09
2022-10-28T05:52:54.688Z,4.14
2022-10-28T05:55:25.771Z,4.07
2022-10-28T05:57:54.557Z,4.21
2022-10-28T06:00:24.345Z,4.24
2022-10-28T06:02:52.954Z,4.09
2022-10-28T06:05:21.703Z,4.35
2022-10-28T06:07:50.030Z,4.39
2022-10-28T06:10:18.390Z,4.40
2022-10-28T06:12:46.554Z,4.45
2022-10-28T06:15:15.039Z,4.45
2022-10-28T06:17:43.609Z,4.45
2022-10-28T06:20:12.064Z,4.59
2022-10-28T06:22:47.287Z,4.67
2022-10-28T06:25:15.775Z,4.66
2022-10-28T06:27:45.774Z,4.57
2022-10-28T06:30:14.653Z,4.76
2022-10-28T06:32:44.249Z,4.77
2022-10-28T06:35:12.652Z,4.80
2022-10-28T06:37:41.031Z,4.85
2022-10-28T06:40:10.215Z,4.75
2022-10-28T06:42:39.412Z,4.91
2022-10-28T06:45:09.853Z,4.99
2022-10-28T06:47:41.507Z,5.01
2022-10-28T06:50:10.774Z,5.09
2022-10-28T06:52:39.183Z,5.11
2022-10-28T06:55:08.302Z,4.72
2022-10-28T06:57:36.679Z,4.72
2022-10-28T07:00:05.697Z,4.66
2022-10-28T07:02:35.553Z,4.73
2022-10-28T07:05:04.044Z,4.79
2022-10-28T07:07:32.520Z,4.73
2022-10-28T07:10:01.315Z,4.91
2022-10-28T07:12:29.813Z,4.84
2022-10-28T07:14:58.146Z,4.93
2022-10-28T07:17:29.382Z,4.91
2022-10-28T07:19:59.205Z,5.10
2022-10-28T07:22:27.531Z,5.12
2022-10-28T07:24:55.976Z,5.40
2022-10-28T07:27:24.331Z,5.50
2022-10-28T07:29:52.715Z,5.66
2022-10-28T07:32:21.070Z,5.75
2022-10-28T07:34:49.474Z,5.77
2022-10-28T07:37:19.238Z,5.89
2022-10-28T07:39:47.615Z,5.99
2022-10-28T07:42:16.153Z,5.96
2022-10-28T07:44:44.541Z,6.22
2022-10-28T07:47:13.014Z,6.26
2022-10-28T07:49:41.417Z,6.10
2022-10-28T07:52:10.712Z,6.36
2022-10-28T07:54:42.715Z,6.19
2022-10-28T07:57:11.165Z,6.49
2022-10-28T07:59:41.760Z,6.60
2022-10-28T08:02:12.120Z,6.46
2022-10-28T08:04:40.846Z,6.70
2022-10-28T08:07:09.256Z,6.85
2022-10-28T08:09:37.598Z,7.01
2022-10-28T08:12:08.408Z,6.95
2022-10-28T08:14:36.817Z,7.03
2022-10-28T08:17:05.459Z,6.95
2022-10-28T08:19:33.885Z,7.01
2022-10-28T08:22:03.081Z,7.23
2022-10-28T08:24:31.468Z,7.32
2022-10-28T08:26:59.966Z,7.36
2022-10-28T08:29:30.143Z,7.35
2022-10-28T08:31:59.600Z,7.37
2022-10-28T08:34:30.064Z,7.33
2022-10-28T08:36:59.116Z,7.37
2022-10-28T08:39:27.693Z,7.59
2022-10-28T08:42:03.962Z,7.69
2022-10-28T08:44:47.394Z,7.76
2022-10-28T08:47:23.282Z,7.82
2022-10-28T08:49:56.371Z,7.81
2022-10-28T08:52:29.873Z,7.84
2022-10-28T08:55:02.223Z,7.79
2022-10-28T08:57:37.950Z,7.90
2022-10-28T09:00:13.599Z,8.02
2022-10-28T09:02:54.419Z,8.06
2022-10-28T09:05:27.719Z,8.01
2022-10-28T09:07:57.327Z,8.02
2022-10-28T09:10:40.950Z,8.09
2022-10-28T09:13:17.147Z,7.94
2022-10-28T09:15:53.822Z,7.89
2022-10-28T09:18:27.684Z,7.91
2022-10-28T09:20:57.516Z,7.89
2022-10-28T09:23:29.335Z,8.09
2022-10-28T09:26:07.158Z,8.03
2022-10-28T09:28:47.901Z,8.14
2022-10-28T09:31:21.950Z,8.09
2022-10-28T09:34:03.032Z,8.21
2022-10-28T09:36:34.515Z,8.29
2022-10-28T09:39:03.460Z,8.29
2022-10-28T09:41:34.201Z,8.26
2022-10-28T09:44:10.067Z,8.43
2022-10-28T09:46:40.679Z,8.36
2022-10-28T09:49:13.881Z,8.53
2022-10-28T09:51:47.552Z,8.46
2022-10-28T09:54:15.905Z,8.70
2022-10-28T09:56:44.294Z,8.71
2022-10-28T09:59:15.566Z,8.66
2022-10-28T10:01:47.888Z,8.69
2022-10-28T10:04:20.993Z,8.67
2022-10-28T10:06:53.353Z,8.72
2022-10-28T10:09:25.326Z,8.71
2022-10-28T10:11:55.612Z,8.79
2022-10-28T10:14:30.460Z,8.79
2022-10-28T10:17:03.109Z,8.76
2022-10-28T10:20:07.070Z,8.79
2022-10-28T10:22:36.661Z,8.86
2022-10-28T10:25:05.838Z,8.70
2022-10-28T10:27:34.423Z,8.80
2022-10-28T10:30:02.880Z,8.84
2022-10-28T10:32:33.596Z,8.92
2022-10-28T10:35:04.278Z,8.86
2022-10-28T10:37:35.778Z,8.88
2022-10-28T10:40:13.866Z,9.01
2022-10-28T10:42:51.705Z,9.09
2022-10-28T10:45:30.521Z,9.11
2022-10-28T10:48:14.279Z,8.63
2022-10-28T10:50:43.178Z,8.92
2022-10-28T10:53:21.327Z,8.94
2022-10-28T10:55:58.773Z,8.89
2022-10-28T10:58:30.413Z,8.84
2022-10-28T11:01:01.889Z,8.69
2022-10-28T11:03:35.078Z,8.68
2022-10-28T11:06:22.675Z,8.85
2022-10-28T11:08:56.392Z,8.71
2022-10-28T11:11:34.055Z,8.77
2022-10-28T11:14:08.774Z,8.96
2022-10-28T11:16:49.221Z,8.95
2022-10-28T11:19:23.067Z,8.85
2022-10-28T11:22:18.303Z,8.99
2022-10-28T11:25:06.828Z,9.01
2022-10-28T11:27:41.718Z,9.16
2022-10-28T11:30:15.179Z,9.27
2022-10-28T11:33:01.957Z,9.25
2022-10-28T11:35:50.520Z,9.34
2022-10-28T11:38:44.645Z,9.23
2022-10-28T11:41:22.243Z,9.14
2022-10-28T11:43:55.072Z,9.14
2022-10-28T11:46:36.787Z,8.96
2022-10-28T11:49:25.688Z,9.13
2022-10-28T11:51:59.095Z,9.00
2022-10-28T11:54:39.177Z,8.92
2022-10-28T11:57:10.312Z,9.05
2022-10-28T11:59:57.100Z,9.06
2022-10-28T12:02:41.317Z,9.02
2022-10-28T12:05:18.835Z,9.01
2022-10-28T12:07:59.240Z,9.07
2022-10-28T12:10:37.154Z,9.05
2022-10-28T12:13:12.290Z,8.96
2022-10-28T12:15:47.013Z,8.88
2022-10-28T12:18:20.045Z,8.83
2022-10-28T12:20:53.118Z,8.89
2022-10-28T12:23:25.146Z,8.84
2022-10-28T12:25:57.461Z,9.04
2022-10-28T12:28:29.426Z,8.99
2022-10-28T12:30:58.106Z,8.98
2022-10-28T12:33:29.489Z,8.86
2022-10-28T12:36:19.414Z,8.92
2022-10-28T12:38:55.469Z,8.80
2022-10-28T12:41:25.621Z,8.78
2022-10-28T12:43:56.944Z,8.73
2022-10-28T12:46:32.551Z,8.58
2022-10-28T12:49:06.153Z,8.72
2022-10-28T12:51:38.777Z,8.67
2022-10-28T12:54:18.612Z,8.66
2022-10-28T12:56:52.900Z,8.70
2022-10-28T12:59:25.574Z,8.72
2022-10-28T13:01:54.192Z,8.71
2022-10-28T13:04:22.654Z,8.68
2022-10-28T13:07:10.025Z,8.61
2022-10-28T13:09:51.017Z,8.74
2022-10-28T13:12:36.161Z,8.74
2022-10-28T13:15:25.797Z,8.71
2022-10-28T13:18:06.487Z,8.69
2022-10-28T13:20:45.429Z,8.70
2022-10-28T13:23:22.304Z,8.58
2022-10-28T13:25:59.368Z,8.38
2022-10-28T13:28:31.012Z,8.41
2022-10-28T13:31:00.969Z,8.53
2022-10-28T13:33:31.167Z,8.54
2022-10-28T13:36:10.966Z,8.53
2022-10-28T13:38:40.217Z,8.41
2022-10-28T13:41:37.754Z,8.57
2022-10-28T13:44:27.811Z,8.58
2022-10-28T13:47:27.374Z,8.53
2022-10-28T13:50:33.778Z,8.55
2022-10-28T13:53:42.606Z,8.50
2022-10-28T13:56:31.474Z,8.45
2022-10-28T13:59:01.074Z,8.42
2022-10-28T14:02:32.462Z,8.31
2022-10-28T14:05:01.123Z,8.21
2022-10-28T14:07:31.902Z,8.32
2022-10-28T14:10:19.242Z,8.26
2022-10-28T14:12:53.076Z,8.20
2022-10-28T14:15:31.962Z,8.25
2022-10-28T14:18:16.089Z,8.22
2022-10-28T14:20:59.304Z,8.15
2022-10-28T14:24:08.580Z,8.02
2022-10-28T14:27:25.588Z,8.18
2022-10-28T14:30:23.008Z,8.07
2022-10-28T14:33:11.582Z,8.21
2022-10-28T14:35:42.079Z,8.14
2022-10-28T14:38:42.742Z,8.12
2022-10-28T14:41:21.844Z,8.01
2022-10-28T14:43:59.279Z,7.85
2022-10-28T14:46:42.374Z,8.08
2022-10-28T14:49:19.349Z,7.94
2022-10-28T14:51:48.302Z,7.96
2022-10-28T14:54:17.950Z,8.02
2022-10-28T14:56:49.186Z,8.01
2022-10-28T14:59:27.002Z,8.10
2022-10-28T15:02:01.881Z,8.08
2022-10-28T15:04:31.396Z,7.81
2022-10-28T15:07:00.242Z,8.02
2022-10-28T15:09:30.139Z,8.03
2022-10-28T15:12:00.439Z,7.97
2022-10-28T15:14:32.406Z,7.83
2022-10-28T15:17:11.196Z,7.91
2022-10-28T15:19:39.730Z,7.79
2022-10-28T15:22:14.787Z,7.90
2022-10-28T15:24:46.333Z,7.87
2022-10-28T15:27:15.930Z,7.82
2022-10-28T15:29:44.570Z,7.70
2022-10-28T15:32:17.067Z,7.59
2022-10-28T15:34:45.596Z,7.35
2022-10-28T15:37:18.310Z,7.56
2022-10-28T15:39:47.157Z,7.56
2022-10-28T15:42:40.521Z,7.57
2022-10-28T15:45:17.997Z,7.54
2022-10-28T15:47:49.173Z,7.51
2022-10-28T15:50:27.310Z,7.47
2022-10-28T15:52:57.559Z,7.54
2022-10-28T15:56:02.450Z,7.48
2022-10-28T15:58:33.111Z,7.44
2022-10-28T16:01:01.546Z,7.53
2022-10-28T16:03:43.240Z,7.50
2022-10-28T16:06:25.914Z,7.43
2022-10-28T16:09:16.431Z,7.49
2022-10-28T16:11:47.528Z,7.58
2022-10-28T16:14:31.825Z,7.55
2022-10-28T16:19:42.867Z,7.54
2022-10-28T16:22:13.629Z,7.54
2022-10-28T16:24:42.238Z,7.36
2022-10-28T16:27:17.376Z,7.55
2022-10-28T16:29:45.725Z,7.36
2022-10-28T16:32:15.372Z,7.54
2022-10-28T16:34:45.471Z,7.49
2022-10-28T16:37:22.219Z,7.43
2022-10-28T16:39:50.755Z,7.56
2022-10-28T16:42:19.549Z,7.59
2022-10-28T16:44:48.044Z,7.59
2022-10-28T16:47:17.914Z,7.59
2022-10-28T16:49:52.609Z,7.42
2022-10-28T16:52:26.473Z,7.53
2022-10-28T16:54:54.876Z,7.58
2022-10-28T16:59:52.588Z,7.49
2022-10-28T17:02:23.835Z,7.73
2022-10-28T17:04:53.771Z,7.72
2022-10-28T17:07:22.157Z,7.71
2022-10-28T17:09:52.072Z,7.75
2022-10-28T17:12:23.016Z,7.55
2022-10-28T17:14:51.461Z,7.79
2022-10-28T17:17:20.334Z,7.82
2022-10-28T17:19:48.731Z,7.84
2022-10-28T17:22:18.543Z,7.79
2022-10-28T17:24:47.099Z,7.89
2022-10-28T17:27:15.524Z,7.95
2022-10-28T17:29:43.923Z,7.96
2022-10-28T17:32:12.393Z,7.99
2022-10-28T17:34:40.872Z,8.05
2022-10-28T17:37:10.520Z,8.06
2022-10-28T17:39:40.393Z,8.06
2022-10-28T17:42:08.769Z,8.06
2022-10-28T17:44:37.385Z,7.91
2022-10-28T17:47:05.831Z,8.05
2022-10-28T17:49:36.600Z,8.05
2022-10-28T17:52:04.999Z,8.08
2022-10-28T17:54:33.449Z,8.02
2022-10-28T17:57:03.203Z,7.82
2022-10-28T17:59:31.810Z,8.08
2022-10-28T18:02:00.343Z,8.07
2022-10-28T18:04:28.784Z,8.09
2022-10-28T18:06:58.284Z,8.10
2022-10-28T18:09:27.843Z,8.13
2022-10-28T18:11:56.260Z,8.15
2022-10-28T18:14:26.038Z,8.11
2022-10-28T18:16:54.387Z,8.08
2022-10-28T18:19:22.763Z,8.08
2022-10-28T18:21:51.174Z,8.08
2022-10-28T18:24:23.317Z,8.12
2022-10-28T18:26:56.077Z,8.14
2022-10-28T18:29:25.939Z,8.12
2022-10-28T18:31:54.310Z,8.04
2022-10-28T18:34:23.884Z,8.06
2022-10-28T18:36:52.969Z,8.08
2022-10-28T18:39:21.417Z,7.94
2022-10-28T18:41:52.123Z,8.05
2022-10-28T18:44:24.311Z,8.03
2022-10-28T18:46:54.072Z,8.06
2022-10-28T18:49:22.486Z,8.03
2022-10-28T18:51:50.944Z,8.05
2022-10-28T18:54:19.327Z,8.00
2022-10-28T18:56:48.033Z,8.04
2022-10-28T18:59:17.483Z,8.01
2022-10-28T19:01:47.207Z,8.10
2022-10-28T19:04:17.157Z,8.09
2022-10-28T19:06:47.073Z,8.03
2022-10-28T19:09:15.743Z,7.96
2022-10-28T19:11:46.260Z,7.97
2022-10-28T19:14:14.718Z,7.99
2022-10-28T19:16:43.050Z,7.81
2022-10-28T19:19:11.397Z,7.98
2022-10-28T19:21:41.105Z,7.94
2022-10-28T19:24:09.954Z,7.82
2022-10-28T19:26:39.456Z,7.90
2022-10-28T19:29:07.892Z,7.84
2022-10-28T19:31:39.143Z,7.82
2022-10-28T19:34:07.625Z,7.81
2022-10-28T19:36:35.954Z,7.39
2022-10-28T19:39:05.872Z,7.67
2022-10-28T19:41:34.348Z,7.66
2022-10-28T19:44:03.554Z,7.69
2022-10-28T19:46:33.000Z,7.75
2022-10-28T19:49:03.334Z,7.57
2022-10-28T19:51:36.128Z,7.65
2022-10-28T19:54:07.367Z,7.69
2022-10-28T19:56:36.524Z,7.58
2022-10-28T19:59:06.301Z,7.77
2022-10-28T20:01:36.766Z,7.78
2022-10-28T20:04:05.767Z,7.79
2022-10-28T20:06:35.704Z,7.71
2022-10-28T20:09:06.078Z,7.82
2022-10-28T20:11:36.298Z,7.77
2022-10-28T20:14:06.354Z,7.73
2022-10-28T20:16:34.777Z,7.83
2022-10-28T20:19:03.433Z,7.87
2022-10-28T20:21:33.400Z,7.85
2022-10-28T20:24:02.774Z,7.96
2022-10-28T20:26:34.521Z,7.99
2022-10-28T20:29:03.354Z,8.01
2022-10-28T20:31:32.939Z,7.90
2022-10-28T20:34:03.916Z,8.09
2022-10-28T20:36:34.061Z,8.14
2022-10-28T20:39:04.065Z,8.00
2022-10-28T20:41:35.520Z,8.15
2022-10-28T20:44:04.095Z,8.10
2022-10-28T20:46:32.582Z,7.94
2022-10-28T20:49:01.315Z,8.09
2022-10-28T20:51:31.378Z,8.15
2022-10-28T20:53:59.918Z,7.96
2022-10-28T20:56:30.180Z,8.05
2022-10-28T20:59:00.425Z,7.96
2022-10-28T21:01:29.943Z,7.99
2022-10-28T21:04:00.601Z,7.92
2022-10-28T21:06:29.485Z,8.12
2022-10-28T21:08:58.565Z,8.19
2022-10-28T21:11:27.982Z,8.24
2022-10-28T21:13:59.400Z,8.22
2022-10-28T21:16:30.348Z,8.13
2022-10-28T21:18:59.275Z,8.09
2022-10-28T21:21:27.789Z,7.92
2022-10-28T21:23:56.649Z,7.89
2022-10-28T21:26:26.801Z,8.06
2022-10-28T21:28:56.574Z,8.08
2022-10-28T21:31:25.462Z,7.96
2022-10-28T21:33:55.198Z,8.13
2022-10-28T21:36:24.380Z,8.06
2022-10-28T21:38:55.907Z,8.19
2022-10-28T21:41:25.107Z,8.14
2022-10-28T21:43:54.484Z,8.17
2022-10-28T21:46:24.214Z,8.15
2022-10-28T21:48:55.160Z,8.15
2022-10-28T21:51:23.681Z,8.23
2022-10-28T21:53:52.115Z,8.08
2022-10-28T21:56:21.326Z,8.06
2022-10-28T21:58:50.659Z,8.26
2022-10-28T22:01:20.524Z,8.20
2022-10-28T22:03:49.147Z,8.33
2022-10-28T22:06:18.963Z,8.33
2022-10-28T22:08:47.333Z,8.34
2022-10-28T22:11:17.790Z,8.34
2022-10-28T22:13:46.474Z,8.24
2022-10-28T22:16:16.482Z,8.39
2022-10-28T22:18:45.544Z,8.38
2022-10-28T22:21:15.295Z,8.29
2022-10-28T22:23:45.321Z,8.42
2022-10-28T22:26:15.404Z,8.35
2022-10-28T22:28:44.240Z,8.34
2022-10-28T22:31:14.887Z,8.24
2022-10-28T22:33:43.786Z,8.36
2022-10-28T22:36:14.017Z,8.12
2022-10-28T22:38:44.398Z,7.99
2022-10-28T22:41:14.444Z,8.19
2022-10-28T22:43:43.698Z,8.34
2022-10-28T22:46:13.402Z,8.19
2022-10-28T22:48:42.294Z,8.22
2022-10-28T22:51:10.949Z,8.34
2022-10-28T22:53:40.119Z,8.36
2022-10-28T22:56:13.235Z,8.34
2022-10-28T22:58:41.611Z,8.34
2022-10-28T23:01:12.298Z,8.35
2022-10-28T23:03:42.553Z,8.21
2022-10-28T23:06:14.876Z,8.00
2022-10-28T23:08:44.924Z,8.29
2022-10-28T23:11:15.278Z,8.32
2022-10-28T23:13:43.841Z,8.19
2022-10-28T23:16:14.382Z,8.17
2022-10-28T23:18:49.366Z,8.10
2022-10-28T23:21:21.165Z,8.20
2022-10-28T23:23:54.216Z,8.06
2022-10-28T23:26:24.358Z,8.04
2022-10-28T23:28:53.656Z,8.01
2022-10-28T23:31:22.987Z,8.11
2022-10-28T23:33:51.430Z,8.09
2022-10-28T23:36:20.911Z,8.08
2022-10-28T23:38:49.399Z,8.03
2022-10-28T23:41:19.425Z,7.91
2022-10-28T23:43:49.965Z,8.04
2022-10-28T23:46:18.655Z,7.73
2022-10-28T23:48:48.318Z,7.98
2022-10-28T23:51:16.705Z,7.57
2022-10-28T23:53:45.972Z,8.03
2022-10-28T23:56:14.381Z,7.80
2022-10-28T23:58:44.173Z,7.76
